Time;durP1;ratioP1;P1;durP2;ratioP2;P2;SDS_P1;SDS_P2;PMS_P1;PMS_P2;Temp;Humidity;BMP_temperature;BMP_pressure;BME280_temperature;BME280_humidity;BME280_pressure;Samples;Min_cycle;Max_cycle;Signal;HPM_P1;HPM_P2
2021/03/09 00:00:49;;;;;;;26.15;17.63;;;4.00;99.90;;;3.54;72.62;101917.47;4206346;28;20036;-78
2021/03/09 00:02:49;;;;;;;29.70;19.27;;;3.90;99.90;;;3.47;73.20;101926.53;4218706;28;20466;-78
2021/03/09 00:04:50;;;;;;;30.90;18.52;;;3.90;99.90;;;3.27;74.34;101918.94;4211435;28;20020;-78
2021/03/09 00:06:51;;;;;;;26.33;19.67;;;3.80;99.90;;;3.35;73.46;101921.97;4214501;28;20028;-77
2021/03/09 00:08:52;;;;;;;27.98;19.80;;;3.70;99.90;;;2.73;74.49;101854.88;4219674;28;20111;-78
2021/03/09 00:10:53;;;;;;;27.30;18.88;;;3.60;99.90;;;3.18;74.90;101920.25;4219930;28;20028;-78
2021/03/09 00:12:54;;;;;;;28.75;20.00;;;3.60;99.90;;;3.21;73.89;101921.88;4219546;28;20043;-78
2021/03/09 00:14:55;;;;;;;29.77;20.42;;;3.50;99.90;;;3.01;75.63;101920.31;4219784;28;20024;-78
2021/03/09 00:16:56;;;;;;;31.17;19.38;;;3.40;99.90;;;3.13;74.31;101918.81;4219460;28;20035;-78
2021/03/09 00:18:57;;;;;;;28.77;19.35;;;3.40;99.90;;;2.98;75.83;101920.47;4219746;28;20028;-78
2021/03/09 00:20:58;;;;;;;27.35;18.67;;;3.30;99.90;;;2.84;76.07;101912.47;4219423;28;20491;-78
2021/03/09 00:22:59;;;;;;;27.67;16.83;;;3.30;99.90;;;2.87;75.41;101907.13;4219515;28;20372;-78
2021/03/09 00:25:00;;;;;;;31.23;19.17;;;3.20;99.90;;;2.77;74.51;101888.53;4219332;28;20039;-78
2021/03/09 00:27:01;;;;;;;28.20;19.98;;;3.10;99.90;;;2.76;74.93;101901.63;4219311;28;20055;-78
2021/03/09 00:29:02;;;;;;;26.58;19.45;;;3.00;99.90;;;2.65;75.42;101904.78;4219138;28;20028;-78
2021/03/09 00:31:03;;;;;;;30.60;19.90;;;3.00;99.90;;;2.56;75.73;101893.97;4219298;28;20020;-78
2021/03/09 00:33:04;;;;;;;32.97;20.23;;;2.90;99.90;;;2.66;74.88;101901.22;4219078;28;20201;-78
2021/03/09 00:35:05;;;;;;;28.45;19.55;;;2.90;99.90;;;2.48;75.79;101898.72;4219260;28;20108;-78
2021/03/09 00:37:06;;;;;;;27.70;18.77;;;2.80;99.90;;;2.12;76.03;101889.16;4219244;28;20081;-78
2021/03/09 00:39:07;;;;;;;27.88;18.63;;;2.70;99.90;;;2.16;77.83;101900.28;4219109;28;20023;-78
2021/03/09 00:41:08;;;;;;;30.80;18.65;;;2.60;99.90;;;2.15;77.59;101903.81;4219025;28;20024;-78
2021/03/09 00:43:09;;;;;;;27.13;18.83;;;2.50;99.90;;;2.24;76.85;101901.59;4219008;28;20085;-78
2021/03/09 00:45:11;;;;;;;28.35;18.77;;;2.50;99.90;;;2.06;76.68;101871.25;4219162;28;20028;-78
2021/03/09 00:47:12;;;;;;;29.58;18.88;;;2.50;99.90;;;2.21;76.93;101901.75;4218941;28;20051;-78
2021/03/09 00:49:13;;;;;;;27.98;18.70;;;2.50;99.90;;;2.19;76.98;101890.56;4218789;28;20107;-77
2021/03/09 00:51:14;;;;;;;26.83;18.63;;;2.50;99.90;;;2.23;77.47;101894.72;4219071;28;20168;-77
2021/03/09 00:53:15;;;;;;;30.80;19.10;;;2.50;99.90;;;2.09;77.60;101894.53;4218980;28;20035;-78
2021/03/09 00:55:16;;;;;;;29.67;18.20;;;2.50;99.90;;;2.04;78.03;101900.88;4218882;28;20028;-78
2021/03/09 00:57:17;;;;;;;30.58;18.90;;;2.50;99.90;;;2.07;78.41;101901.56;4218485;28;20055;-77
2021/03/09 00:59:18;;;;;;;30.55;19.10;;;2.60;99.90;;;2.18;76.88;101899.28;4217653;28;20031;-77
2021/03/09 01:01:19;;;;;;;30.27;20.48;;;2.60;99.90;;;1.95;77.29;101881.34;4217664;28;20483;-78
2021/03/09 01:03:20;;;;;;;31.30;19.67;;;2.50;99.90;;;1.85;78.67;101905.28;4212075;28;20035;-77
2021/03/09 01:05:22;;;;;;;31.08;21.08;;;2.40;99.90;;;1.81;79.70;101907.19;4218720;28;20043;-77
2021/03/09 01:07:23;;;;;;;28.65;20.13;;;2.30;99.90;;;1.74;79.83;101900.56;4217541;28;20028;-78
2021/03/09 01:09:24;;;;;;;29.85;19.60;;;2.30;99.90;;;1.84;79.34;101904.44;4210168;28;20115;-77
2021/03/09 01:11:25;;;;;;;27.30;19.08;;;2.20;99.90;;;1.88;78.95;101905.94;4211601;28;20479;-78
2021/03/09 01:13:27;;;;;;;28.70;18.35;;;2.20;99.90;;;1.69;79.70;101881.72;4218449;28;20367;-77
2021/03/09 01:15:28;;;;;;;28.50;20.23;;;2.20;99.90;;;1.86;79.90;101896.53;4217397;28;20016;-78
2021/03/09 01:17:29;;;;;;;34.95;20.80;;;2.10;99.90;;;1.83;79.78;101892.31;4218862;28;20034;-78
2021/03/09 01:19:30;;;;;;;29.83;19.75;;;2.10;99.90;;;1.78;80.55;101878.72;4218571;28;20024;-78
2021/03/09 01:21:30;;;;;;;33.20;21.58;;;2.20;99.90;;;1.77;79.40;101860.56;4218755;28;20024;-77
2021/03/09 01:23:31;;;;;;;31.75;21.17;;;2.20;99.90;;;1.84;79.94;101888.81;4218400;28;20104;-78
2021/03/09 01:25:32;;;;;;;29.33;19.23;;;2.20;99.90;;;1.97;78.85;101892.50;4200565;28;20060;-77
2021/03/09 01:27:33;;;;;;;27.42;18.88;;;2.20;99.90;;;1.85;79.26;101880.09;4208861;28;20067;-78
2021/03/09 01:29:34;;;;;;;27.17;19.08;;;2.20;99.90;;;1.87;78.81;101888.69;4212367;28;20141;-78
2021/03/09 01:31:35;;;;;;;30.77;18.42;;;2.20;99.90;;;1.87;78.87;101882.63;4218250;28;20482;-77
2021/03/09 01:33:36;;;;;;;30.95;20.00;;;2.20;99.90;;;1.66;78.51;101855.88;4218547;28;20028;-78
2021/03/09 01:35:38;;;;;;;30.83;20.77;;;2.20;99.90;;;1.65;78.67;101867.19;4217211;28;20461;-78
2021/03/09 01:37:40;;;;;;;30.55;18.83;;;2.10;99.90;;;1.59;79.54;101885.66;4218363;28;20020;-78
2021/03/09 01:39:42;;;;;;;33.65;19.67;;;2.10;99.90;;;1.60;79.99;101879.56;4218330;28;20043;-78
2021/03/09 01:41:43;;;;;;;31.35;20.55;;;2.10;99.90;;;1.75;79.29;101885.81;4218638;28;20386;-78
2021/03/09 01:43:44;;;;;;;30.90;18.67;;;2.10;99.90;;;1.76;79.11;101890.94;4218129;28;20042;-77
2021/03/09 01:45:45;;;;;;;31.02;18.98;;;2.10;99.90;;;1.70;79.31;101883.44;4217133;28;20024;-77
2021/03/09 01:47:49;;;;;;;28.33;19.13;;;2.10;99.90;;;1.64;79.23;101878.50;4216905;28;20119;-78
2021/03/09 01:49:50;;;;;;;27.60;17.42;;;2.10;99.90;;;1.59;79.78;101868.31;4217359;28;20032;-78
2021/03/09 01:51:52;;;;;;;30.23;18.83;;;2.20;99.90;;;1.57;79.86;101877.09;4209396;28;20093;-78
2021/03/09 01:53:53;;;;;;;32.83;20.73;;;2.20;99.90;;;1.60;79.93;101869.16;4213957;28;20398;-77
2021/03/09 01:55:56;;;;;;;28.48;18.90;;;2.20;99.90;;;1.56;80.44;101880.59;4216866;28;20024;-77
2021/03/09 01:57:59;;;;;;;30.38;19.83;;;2.50;99.90;;;1.63;80.84;101884.63;4206995;28;20028;-78
2021/03/09 02:00:03;;;;;;;28.30;18.65;;;2.20;99.90;;;1.80;80.10;101870.81;4218133;28;20063;-78
2021/03/09 02:02:05;;;;;;;28.48;18.70;;;2.30;99.90;;;1.73;80.46;101875.50;4218025;28;20036;-78
2021/03/09 02:04:06;;;;;;;31.60;20.52;;;2.30;99.90;;;1.61;80.62;101878.66;4217023;28;20081;-78
2021/03/09 02:06:12;;;;;;;30.23;20.92;;;2.30;99.90;;;1.70;81.13;101870.44;4207662;28;20024;-77
2021/03/09 02:08:13;;;;;;;35.90;22.27;;;2.30;99.90;;;1.90;81.09;101880.72;4217944;28;20024;-77
2021/03/09 02:10:16;;;;;;;36.90;22.38;;;2.40;99.90;;;1.87;81.76;101872.22;4216853;28;20111;-77
2021/03/09 02:12:52;;;;;;;29.60;19.85;;;2.40;99.90;;;2.19;81.45;101876.72;4233555;28;20026;-77
2021/03/09 02:15:09;;;;;;;32.78;21.23;;;2.60;99.90;;;2.11;82.05;101881.44;4203738;28;20045;-78
2021/03/09 02:17:33;;;;;;;31.40;18.70;;;2.70;99.90;;;2.43;79.14;101872.06;4205354;28;20027;-78
2021/03/09 02:20:17;;;;;;;31.38;20.50;;;2.80;99.90;;;2.37;80.72;101872.34;4217898;28;20043;-77
2021/03/09 02:23:07;;;;;;;31.48;21.08;;;2.90;99.90;;;2.34;80.23;101865.53;4221520;28;20077;-78
2021/03/09 02:25:23;;;;;;;30.95;20.80;;;2.90;99.90;;;2.41;80.22;101863.50;4221286;28;20032;-78
2021/03/09 02:27:35;;;;;;;34.17;22.17;;;2.90;99.90;;;2.37;81.02;101870.59;4221154;28;20024;-78
2021/03/09 02:30:03;;;;;;;32.25;21.88;;;3.00;99.90;;;2.52;80.50;101861.19;4221055;28;20058;-77
2021/03/09 02:32:06;;;;;;;34.75;22.38;;;3.00;99.90;;;2.55;80.43;101869.69;4206059;28;20040;-78
2021/03/09 02:34:12;;;;;;;33.30;20.85;;;3.10;99.90;;;2.63;80.40;101856.25;4209901;28;20586;-78
2021/03/09 02:36:17;;;;;;;32.78;21.92;;;3.20;99.90;;;2.74;80.33;101857.41;4250780;27;20120;-77
2021/03/09 02:38:21;;;;;;;35.55;22.02;;;3.20;99.90;;;2.57;80.18;101860.03;4217724;28;20035;-78
2021/03/09 02:40:25;;;;;;;36.00;20.85;;;3.20;99.90;;;2.51;81.25;101869.94;4203243;28;20534;-78
2021/03/09 02:42:28;;;;;;;32.70;21.33;;;3.20;99.90;;;2.38;81.06;101851.47;4214632;28;20032;-78
2021/03/09 02:44:30;;;;;;;34.28;21.30;;;3.20;99.90;;;2.48;82.06;101860.47;4219745;28;20118;-77
2021/03/09 02:46:34;;;;;;;30.35;22.08;;;3.20;99.90;;;2.69;81.31;101853.34;4208291;28;20107;-78
2021/03/09 02:48:36;;;;;;;35.30;22.50;;;3.20;99.90;;;2.61;81.17;101845.09;4212203;28;20032;-78
2021/03/09 02:50:39;;;;;;;31.60;21.38;;;3.20;99.90;;;2.67;81.71;101843.00;4219759;28;20034;-78
2021/03/09 02:52:42;;;;;;;31.58;20.17;;;3.20;99.90;;;2.73;81.29;101852.28;4220348;28;20031;-78
2021/03/09 02:54:45;;;;;;;30.80;21.20;;;3.30;99.90;;;2.73;81.52;101836.63;4219704;28;20522;-78
2021/03/09 02:56:47;;;;;;;32.08;21.08;;;3.30;99.90;;;2.83;81.48;101848.28;4212712;28;20031;-78
2021/03/09 02:58:54;;;;;;;29.08;20.30;;;3.30;99.90;;;2.83;81.36;101850.88;4216156;28;20036;-78
2021/03/09 03:00:56;;;;;;;33.08;20.15;;;3.30;99.90;;;2.94;80.56;101843.34;4219735;28;20020;-77
2021/03/09 03:02:58;;;;;;;30.20;21.05;;;3.30;99.90;;;2.88;80.88;101841.06;4219509;28;20032;-78
2021/03/09 03:04:59;;;;;;;33.38;20.42;;;3.30;99.90;;;2.71;81.87;101843.69;4213722;28;20024;-78
2021/03/09 03:07:01;;;;;;;31.80;20.48;;;3.30;99.90;;;2.74;81.54;101851.38;4216858;28;20441;-78
2021/03/09 03:09:02;;;;;;;34.50;20.63;;;3.20;99.90;;;2.75;81.90;101853.03;4220522;28;20036;-77
2021/03/09 03:11:04;;;;;;;34.25;20.75;;;3.20;99.90;;;2.74;81.88;101847.00;4220708;28;20053;-78
2021/03/09 03:13:11;;;;;;;28.65;19.35;;;3.20;99.90;;;2.60;80.85;101806.94;4220418;28;20169;-77
2021/03/09 03:15:14;;;;;;;25.48;17.92;;;3.20;99.90;;;2.71;81.15;101846.31;4220449;28;20028;-78
2021/03/09 03:17:16;;;;;;;25.55;18.08;;;3.10;99.90;;;2.77;81.05;101844.22;4219485;28;20030;-78
2021/03/09 03:19:19;;;;;;;27.45;18.98;;;3.10;99.90;;;2.53;81.59;101826.41;4194519;28;20047;-78
2021/03/09 03:21:21;;;;;;;25.17;18.63;;;3.00;99.90;;;2.58;82.38;101840.88;4219241;28;20024;-78
2021/03/09 03:23:24;;;;;;;31.35;19.58;;;1.40;99.90;;;2.55;82.50;101829.78;4219111;28;20036;-78
2021/03/09 03:25:26;;;;;;;27.27;18.80;;;3.00;99.90;;;2.52;82.69;101840.34;4219484;28;20020;-78
2021/03/09 03:27:27;;;;;;;29.45;19.73;;;2.90;99.90;;;2.49;81.66;101830.09;4220395;28;20027;-78
2021/03/09 03:29:28;;;;;;;29.17;20.05;;;2.90;99.90;;;2.45;81.79;101828.56;4219031;28;20519;-78
2021/03/09 03:31:30;;;;;;;27.38;19.80;;;2.90;99.90;;;2.56;81.53;101836.66;4217348;28;20119;-78
2021/03/09 03:33:32;;;;;;;28.13;19.02;;;2.80;99.90;;;2.47;81.40;101827.56;4206798;28;20031;-78
2021/03/09 03:35:34;;;;;;;26.55;18.95;;;2.90;99.90;;;2.26;82.19;101825.19;4220325;28;20081;-78
2021/03/09 03:37:37;;;;;;;32.33;20.00;;;2.80;99.90;;;2.21;83.61;101834.06;4219043;28;20020;-78
2021/03/09 03:39:38;;;;;;;33.95;20.30;;;2.70;99.90;;;2.13;83.58;101832.75;4218941;28;20110;-78
2021/03/09 03:41:40;;;;;;;33.55;19.55;;;2.60;99.90;;;2.20;83.74;101841.97;4213634;28;20029;-78
2021/03/09 03:43:41;;;;;;;31.75;20.73;;;2.60;99.90;;;2.19;83.58;101832.47;4212183;28;20039;-78
2021/03/09 03:45:42;;;;;;;36.85;24.70;;;2.50;99.90;;;2.30;82.63;101837.16;4219066;28;20058;-78
2021/03/09 03:47:43;;;;;;;32.20;21.52;;;2.50;99.90;;;2.38;81.37;101819.38;4217063;28;20047;-78
2021/03/09 03:49:44;;;;;;;30.08;20.20;;;2.60;99.90;;;2.28;81.57;101823.34;4207100;28;20032;-78
2021/03/09 03:51:54;;;;;;;29.20;21.08;;;2.60;99.90;;;2.24;82.50;101838.28;4218823;28;20483;-78
2021/03/09 03:54:13;;;;;;;34.65;21.40;;;2.60;99.90;;;2.17;82.52;101836.91;4214614;28;20028;-77
2021/03/09 03:56:17;;;;;;;31.92;20.63;;;2.50;99.90;;;2.30;81.41;101826.75;4208536;28;20475;-78
2021/03/09 03:58:33;;;;;;;31.23;20.38;;;2.50;99.90;;;2.09;82.38;101833.84;4219775;28;20056;-78
2021/03/09 04:00:34;;;;;;;32.67;20.42;;;2.40;99.90;;;2.05;82.03;101834.91;4218232;28;20184;-78
2021/03/09 04:02:37;;;;;;;34.47;21.90;;;2.40;99.90;;;2.12;81.98;101836.31;4206349;28;20094;-78
2021/03/09 04:04:41;;;;;;;38.17;22.02;;;2.30;99.90;;;2.17;80.80;101816.94;4209970;28;20028;-78
2021/03/09 04:06:46;;;;;;;32.45;21.55;;;2.30;99.90;;;2.09;81.42;101829.47;4218532;28;20024;-77
2021/03/09 04:08:47;;;;;;;34.65;21.65;;;2.30;99.90;;;1.90;81.83;101801.81;4217884;28;20040;-78
2021/03/09 04:10:51;;;;;;;34.85;22.70;;;2.30;99.90;;;2.01;81.84;101829.00;4207291;28;20099;-78
2021/03/09 04:12:54;;;;;;;30.98;20.33;;;2.30;99.90;;;1.92;82.72;101823.41;4211868;28;20028;-78
2021/03/09 04:14:58;;;;;;;32.30;20.80;;;2.20;99.90;;;1.93;82.04;101830.31;4218341;28;20105;-78
2021/03/09 04:17:01;;;;;;;;;;;2.20;99.90;;;1.78;81.70;101808.47;4219899;28;20035;-78
2021/03/09 04:19:05;;;;;;;34.58;21.15;;;2.20;99.90;;;1.85;82.23;101825.44;4218364;28;19908;-78
2021/03/09 04:21:06;;;;;;;33.75;21.70;;;2.20;99.90;;;1.73;82.10;101812.22;4211870;28;20035;-78
2021/03/09 04:23:10;;;;;;;38.78;25.00;;;2.20;99.90;;;1.78;82.47;101831.88;4218149;28;20503;-78
2021/03/09 04:25:13;;;;;;;51.53;29.27;;;2.00;99.90;;;1.87;82.04;101825.41;4205212;28;20024;-78
2021/03/09 04:27:21;;;;;;;49.65;27.48;;;2.10;99.90;;;2.06;80.70;101824.41;4208571;28;20298;-78
2021/03/09 04:29:22;;;;;;;53.97;29.00;;;2.20;99.90;;;1.95;81.59;101829.31;4217163;28;20032;-78
2021/03/09 04:31:24;;;;;;;51.38;27.95;;;2.20;99.90;;;1.83;81.84;101834.25;4216591;28;20024;-78
2021/03/09 04:33:29;;;;;;;43.28;24.45;;;2.10;99.90;;;1.84;81.30;101830.75;4205601;28;20024;-78
2021/03/09 04:35:30;;;;;;;49.78;27.80;;;2.10;99.90;;;1.78;80.85;101825.84;4219302;28;20047;-78
2021/03/09 04:37:32;;;;;;;41.90;25.13;;;2.10;99.90;;;1.85;81.25;101835.84;4219328;28;20494;-78
2021/03/09 04:39:34;;;;;;;38.72;24.63;;;2.00;99.90;;;1.81;81.15;101825.69;4217910;28;20027;-78
2021/03/09 04:41:36;;;;;;;33.28;23.48;;;2.00;99.90;;;1.48;81.14;101766.56;4206862;28;20019;-78
2021/03/09 04:43:38;;;;;;;34.55;22.58;;;2.10;99.90;;;1.93;80.88;101836.34;4218011;28;20028;-78
2021/03/09 04:45:39;;;;;;;36.92;22.40;;;2.10;99.90;;;1.87;81.16;101836.66;4213684;28;20363;-77
2021/03/09 04:47:41;;;;;;;37.20;22.73;;;2.10;99.90;;;1.75;81.80;101839.84;4218908;28;20127;-78
2021/03/09 04:49:42;;;;;;;33.75;22.65;;;2.10;99.90;;;1.74;82.01;101830.34;4217919;28;20035;-77
2021/03/09 04:51:44;;;;;;;32.83;20.42;;;2.00;99.90;;;1.75;80.76;101832.03;4208953;28;20028;-78
2021/03/09 04:53:46;;;;;;;34.65;21.90;;;2.00;99.90;;;1.63;81.29;101832.59;4212442;28;20032;-78
2021/03/09 04:55:47;;;;;;;35.83;22.63;;;1.90;99.90;;;1.80;80.87;101835.25;4217599;28;20034;-77
2021/03/09 04:57:49;;;;;;;33.47;21.15;;;2.00;99.90;;;1.48;82.21;101835.94;4206794;28;20487;-78
2021/03/09 04:59:50;;;;;;;39.17;22.40;;;1.90;99.90;;;1.44;82.44;101836.97;4219010;28;20519;-77
2021/03/09 05:01:51;;;;;;;34.42;21.50;;;1.80;99.90;;;1.54;81.72;101822.63;4218639;28;20031;-78
2021/03/09 05:03:51;;;;;;;35.92;22.88;;;1.80;99.90;;;1.61;81.80;101821.44;4218794;28;20512;-77
2021/03/09 05:05:53;;;;;;;30.13;20.60;;;1.80;99.90;;;1.45;82.06;101829.13;4217843;28;20035;-78
2021/03/09 05:07:54;;;;;;;36.75;23.23;;;1.80;99.90;;;1.33;83.19;101819.28;4210582;28;20571;-78
2021/03/09 05:09:55;;;;;;;42.55;26.02;;;1.70;99.90;;;1.42;83.52;101818.00;4218709;28;20056;-78
2021/03/09 05:11:56;;;;;;;38.53;24.65;;;1.70;99.90;;;1.40;82.98;101807.69;4218446;28;20028;-78
2021/03/09 05:13:58;;;;;;;42.13;24.90;;;1.70;99.90;;;1.56;82.77;101823.41;4217549;28;20111;-78
2021/03/09 05:15:58;;;;;;;32.28;21.65;;;1.70;99.90;;;1.39;82.97;101826.81;4209007;28;20028;-78
2021/03/09 05:18:00;;;;;;;35.90;21.83;;;1.70;99.90;;;1.44;82.62;101821.38;4213451;28;20066;-78
2021/03/09 05:20:01;;;;;;;32.20;21.17;;;1.70;99.90;;;1.39;82.82;101819.00;4218425;28;20038;-78
2021/03/09 05:22:02;;;;;;;33.80;20.40;;;1.70;99.90;;;1.36;82.35;101833.88;4218719;28;20028;-78
2021/03/09 05:24:03;;;;;;;33.83;21.42;;;1.60;99.90;;;1.27;82.46;101823.91;4218695;28;20440;-78
2021/03/09 05:26:04;;;;;;;37.00;24.15;;;1.60;99.90;;;1.33;82.15;101834.88;4218550;28;20084;-78
2021/03/09 05:28:05;;;;;;;35.10;22.67;;;1.80;99.90;;;1.32;82.68;101837.53;4218321;28;20074;-78
2021/03/09 05:30:07;;;;;;;33.42;22.35;;;1.60;99.90;;;1.40;81.88;101840.66;4218603;28;20021;-78
2021/03/09 05:32:08;;;;;;;32.63;21.42;;;1.60;99.90;;;1.33;81.72;101834.88;4218435;28;20020;-78
2021/03/09 05:34:09;;;;;;;31.63;21.25;;;1.50;99.90;;;1.17;81.95;101812.25;4217146;28;20035;-78
2021/03/09 05:36:10;;;;;;;33.40;21.80;;;1.50;99.90;;;1.24;82.08;101826.66;4215069;28;20024;-78
2021/03/09 05:38:11;;;;;;;35.40;23.00;;;1.50;99.90;;;1.25;82.58;101829.19;4218352;28;20031;-78
2021/03/09 05:40:16;;;;;;;32.30;21.55;;;1.50;99.90;;;1.25;83.16;101824.00;4218381;28;20064;-78
2021/03/09 05:42:17;;;;;;;32.15;21.05;;;1.50;99.90;;;1.20;83.52;101832.91;4216952;28;20526;-78
2021/03/09 05:44:18;;;;;;;34.50;22.23;;;1.50;99.90;;;1.15;83.89;101835.72;4215004;28;20081;-78
2021/03/09 05:46:19;;;;;;;35.17;21.85;;;1.50;99.90;;;1.08;83.76;101845.53;4218407;28;20035;-78
2021/03/09 05:48:20;;;;;;;34.97;22.52;;;1.50;99.90;;;0.90;83.47;101824.72;4217923;28;20048;-78
2021/03/09 05:50:21;;;;;;;30.75;19.23;;;1.40;99.90;;;0.91;82.56;101822.06;4218297;28;20047;-78
2021/03/09 05:52:22;;;;;;;35.78;23.35;;;1.40;99.90;;;0.91;82.84;101836.81;4217019;28;20073;-78
2021/03/09 05:54:24;;;;;;;34.08;21.33;;;1.30;99.90;;;0.94;83.22;101837.53;4218008;28;20081;-78
2021/03/09 05:56:25;;;;;;;30.42;20.15;;;1.20;99.90;;;0.88;83.27;101835.19;4217840;28;20027;-78
2021/03/09 05:58:27;;;;;;;33.13;19.67;;;1.20;99.90;;;0.86;82.91;101834.44;4216799;28;20020;-78
2021/03/09 06:00:28;;;;;;;29.52;19.70;;;1.20;99.90;;;0.89;83.12;101849.88;4213141;28;20649;-78
2021/03/09 06:02:29;;;;;;;35.15;22.17;;;1.20;99.90;;;0.93;82.00;101846.22;4217755;28;20028;-78
2021/03/09 06:04:36;;;;;;;34.75;21.58;;;1.20;99.90;;;0.90;80.30;101812.59;4217163;28;20074;-78
2021/03/09 06:06:37;;;;;;;31.70;20.63;;;1.80;99.90;;;0.99;81.30;101852.88;4211204;28;20047;-78
2021/03/09 06:08:38;;;;;;;34.45;20.30;;;1.20;99.90;;;0.83;82.52;101850.16;4217881;28;20028;-78
2021/03/09 06:10:38;;;;;;;31.48;20.40;;;1.20;99.90;;;0.82;82.96;101852.78;4216903;28;20114;-78
2021/03/09 06:12:40;;;;;;;30.23;19.52;;;1.10;99.90;;;0.76;83.77;101845.28;4207106;28;20036;-78
2021/03/09 06:15:05;;;;;;;27.50;18.20;;;1.10;99.90;;;0.66;83.79;101854.38;4216893;28;20030;-78
2021/03/09 06:17:09;;;;;;;30.08;19.25;;;1.00;99.90;;;0.70;82.88;101859.38;4217187;28;20467;-78
2021/03/09 06:19:10;;;;;;;27.50;18.65;;;1.10;99.90;;;0.59;82.88;101847.75;4216603;28;20060;-78
2021/03/09 06:21:13;;;;;;;28.00;18.85;;;1.00;99.90;;;0.59;83.25;101861.59;4209589;28;20035;-78
2021/03/09 06:23:27;;;;;;;30.27;18.90;;;1.00;99.90;;;0.68;82.90;101866.38;4214317;28;20049;-78
2021/03/09 06:25:39;;;;;;;31.00;21.10;;;1.00;99.90;;;0.72;82.80;101861.91;4216756;28;20074;-78
2021/03/09 06:27:40;;;;;;;37.67;23.50;;;1.00;99.90;;;0.97;83.07;101860.75;4210895;28;20046;-78
2021/03/09 06:29:44;;;;;;;38.35;23.13;;;1.10;99.90;;;1.06;83.15;101868.16;4216458;28;20030;-78
2021/03/09 06:31:56;;;;;;;38.28;24.63;;;1.10;99.90;;;1.17;83.29;101870.25;4214283;28;20032;-78
2021/03/09 06:34:25;;;;;;;36.42;22.42;;;1.30;99.90;;;1.11;84.45;101865.34;4209876;28;20055;-78
2021/03/09 06:36:26;;;;;;;40.05;25.23;;;1.30;99.90;;;1.08;84.68;101866.31;4210173;28;20085;-78
2021/03/09 06:38:32;;;;;;;41.95;24.27;;;1.30;99.90;;;1.10;84.10;101864.53;4216583;28;20286;-77
2021/03/09 06:40:33;;;;;;;36.15;22.95;;;1.30;99.90;;;1.19;83.75;101872.81;4217986;28;20486;-78
2021/03/09 06:42:37;;;;;;;32.47;20.02;;;1.40;99.90;;;1.03;84.13;101860.50;4217555;28;20035;-78
2021/03/09 06:44:39;;;;;;;35.67;22.23;;;1.40;99.90;;;1.07;83.29;101869.00;4217745;28;20491;-77
2021/03/09 06:46:46;;;;;;;32.03;22.27;;;1.30;99.90;;;0.97;83.58;101870.31;4217743;28;20353;-77
2021/03/09 06:48:50;;;;;;;31.38;21.05;;;1.30;99.90;;;0.81;83.79;101872.72;4217781;28;20059;-78
2021/03/09 06:50:51;;;;;;;;;;;1.30;99.90;;;0.72;84.05;101864.50;4218161;28;20501;-78
2021/03/09 06:53:03;;;;;;;31.83;19.60;;;1.20;99.90;;;0.67;83.36;101856.91;4216570;28;19908;-77
2021/03/09 06:55:10;;;;;;;33.08;20.55;;;1.20;99.90;;;0.82;82.28;101870.97;4208639;28;20036;-79
2021/03/09 06:57:11;;;;;;;29.33;20.00;;;1.20;99.90;;;0.73;82.98;101869.63;4217202;28;20028;-77
2021/03/09 06:59:32;;;;;;;32.05;22.88;;;1.20;99.90;;;0.79;83.26;101866.75;4217450;28;20104;-78
2021/03/09 07:01:33;;;;;;;35.53;21.20;;;1.20;99.90;;;0.98;84.11;101872.00;4215924;28;20024;-78
2021/03/09 07:03:36;;;;;;;31.35;21.73;;;1.40;99.90;;;0.94;84.03;101879.09;4212062;28;20055;-78
2021/03/09 07:05:56;;;;;;;30.60;19.23;;;1.40;99.90;;;1.01;84.05;101885.72;4216639;28;20026;-78
2021/03/09 07:07:57;;;;;;;34.20;20.77;;;1.40;99.90;;;0.77;84.10;101876.38;4219069;28;20024;-78
2021/03/09 07:10:12;;;;;;;32.70;20.67;;;1.40;99.90;;;0.79;84.15;101904.88;4220520;28;20057;-78
2021/03/09 07:12:14;;;;;;;32.20;20.70;;;1.30;99.90;;;0.95;82.36;101903.31;4220381;28;20103;-78
2021/03/09 07:14:17;;;;;;;32.45;21.50;;;1.40;99.90;;;1.03;82.56;101911.59;4219530;28;20036;-78
2021/03/09 07:16:19;;;;;;;36.08;21.80;;;1.40;99.90;;;1.04;83.59;101906.38;4213037;28;20119;-77
2021/03/09 07:18:26;;;;;;;36.38;23.70;;;1.40;99.90;;;1.05;84.30;101908.03;4216268;28;20066;-78
2021/03/09 07:20:28;;;;;;;36.33;22.92;;;1.50;99.90;;;0.96;84.93;101886.78;4202255;28;20029;-78
2021/03/09 07:22:30;;;;;;;40.25;23.98;;;1.50;99.90;;;1.17;84.87;101911.00;4219233;28;20046;-78
2021/03/09 07:24:32;;;;;;;37.97;23.92;;;1.60;99.90;;;1.13;85.22;101912.91;4220418;28;20032;-77
2021/03/09 07:26:38;;;;;;;35.13;22.02;;;1.60;99.90;;;1.22;85.07;101915.09;4220182;28;20035;-78
2021/03/09 07:28:42;;;;;;;36.08;23.38;;;1.70;99.90;;;1.17;84.54;101898.84;4219207;28;20032;-78
2021/03/09 07:30:47;;;;;;;33.85;20.45;;;1.70;99.90;;;1.23;84.21;101910.72;4211658;28;20020;-78
2021/03/09 07:32:49;;;;;;;;;;;1.80;99.90;;;1.34;83.16;101905.91;4199315;28;20035;-78
2021/03/09 07:34:50;;;;;;;32.75;21.48;;;1.80;99.90;;;1.33;83.28;101904.22;4218914;28;19930;-78
2021/03/09 07:36:54;;;;;;;39.88;22.65;;;1.90;99.90;;;1.57;83.90;101910.91;4208417;28;20028;-78
2021/03/09 07:38:57;;;;;;;36.63;24.02;;;1.90;99.90;;;1.61;84.16;101925.47;4211905;28;20023;-79
2021/03/09 07:40:59;;;;;;;34.05;22.65;;;2.00;99.90;;;1.73;84.28;101942.25;4218857;28;20028;-77
2021/03/09 07:43:00;;;;;;;38.15;23.95;;;2.10;99.90;;;2.03;83.50;101936.44;4205412;28;20040;-78
2021/03/09 07:45:04;;;;;;;36.72;23.88;;;2.30;99.90;;;2.12;84.07;101935.19;4220245;28;20021;-78
2021/03/09 07:47:08;;;;;;;39.00;23.60;;;2.40;99.90;;;2.26;83.56;101937.97;4218653;28;20071;-78
2021/03/09 07:49:10;;;;;;;33.97;22.63;;;2.60;99.90;;;2.29;83.66;101943.03;4216069;28;20020;-78
2021/03/09 07:51:11;;;;;;;38.78;23.83;;;2.70;99.90;;;2.30;84.12;101936.06;4219050;28;20175;-78
2021/03/09 07:53:20;;;;;;;46.40;24.85;;;2.70;99.90;;;2.40;84.48;101947.72;4218803;28;20074;-78
2021/03/09 07:55:21;;;;;;;36.53;22.83;;;2.80;99.90;;;2.42;83.45;101938.09;4220062;28;20016;-78
2021/03/09 07:57:23;;;;;;;33.95;22.58;;;2.90;99.90;;;2.53;83.54;101948.81;4218385;28;20035;-79
2021/03/09 07:59:23;;;;;;;33.90;22.50;;;3.00;99.90;;;2.57;83.20;101947.75;4208588;28;20032;-78
2021/03/09 08:01:46;;;;;;;38.45;22.45;;;3.00;99.90;;;2.55;83.55;101949.56;4218638;28;20020;-78
2021/03/09 08:03:47;;;;;;;33.38;22.35;;;3.10;99.90;;;2.78;82.91;101957.09;4216482;28;20020;-78
2021/03/09 08:05:52;;;;;;;33.90;22.10;;;3.20;99.90;;;2.85;82.20;101953.25;4207835;28;20028;-78
2021/03/09 08:08:03;;;;;;;37.08;21.10;;;3.30;99.90;;;2.77;82.47;101934.56;4219964;28;20555;-78
2021/03/09 08:10:05;;;;;;;36.85;22.25;;;3.30;99.90;;;2.91;81.65;101936.47;4219713;28;20036;-78
2021/03/09 08:12:23;;;;;;;33.35;21.58;;;3.40;99.90;;;3.03;81.12;101954.94;4218173;28;20020;-78
2021/03/09 08:14:26;;;;;;;34.10;20.90;;;3.40;99.90;;;3.04;81.62;101954.03;4211902;28;20020;-78
2021/03/09 08:16:26;;;;;;;38.42;23.30;;;3.50;99.90;;;2.98;81.66;101958.72;4219728;28;20413;-78
2021/03/09 08:18:27;;;;;;;34.38;21.33;;;3.50;99.90;;;3.00;82.07;101949.88;4219116;28;20039;-78
2021/03/09 08:20:53;;;;;;;32.92;20.95;;;3.60;99.90;;;2.86;82.17;101922.84;4219539;28;20035;-78
2021/03/09 08:22:54;;;;;;;33.33;21.27;;;3.60;99.90;;;3.14;82.39;101942.19;4219673;28;20463;-78
2021/03/09 08:24:56;;;;;;;33.22;21.02;;;3.70;99.90;;;3.33;80.69;101950.75;4218158;28;20027;-78
2021/03/09 08:26:57;;;;;;;31.63;21.02;;;3.80;99.90;;;3.33;80.04;101932.50;4208101;28;20032;-78
2021/03/09 08:28:58;;;;;;;39.47;22.15;;;4.00;99.90;;;3.57;79.57;101938.19;4219441;28;20462;-78
2021/03/09 08:31:17;;;;;;;34.33;22.13;;;4.10;99.90;;;3.60;80.35;101945.84;4219443;28;20028;-78
2021/03/09 08:33:27;;;;;;;32.97;20.95;;;4.30;99.90;;;3.62;80.13;101945.75;4219231;28;20020;-78
2021/03/09 08:35:28;;;;;;;33.88;21.58;;;4.20;99.90;;;3.23;80.34;101944.31;4218183;28;20323;-78